Time;durP1;ratioP1;P1;durP2;ratioP2;P2;SDS_P1;SDS_P2;PMS_P1;PMS_P2;Temp;Humidity;BMP_temperature;BMP_pressure;BME280_temperature;BME280_humidity;BME280_pressure;Samples;Min_cycle;Max_cycle;Signal;HPM_P1;HPM_P2
2021/01/29 00:01:47;;;;;;;19.17;11.47;;;;;;;-1.05;100.00;99904.39;1830117;78;21422;-56
2021/01/29 00:04:15;;;;;;;21.13;11.17;;;;;;;-1.02;100.00;99901.33;1830044;77;21133;-56
2021/01/29 00:06:43;;;;;;;26.10;11.33;;;;;;;-1.02;100.00;99901.75;1830163;78;21042;-57
2021/01/29 00:09:10;;;;;;;19.42;10.68;;;;;;;-1.04;100.00;99900.88;1830069;78;21031;-55
2021/01/29 00:11:38;;;;;;;19.50;10.65;;;;;;;-1.10;100.00;99901.78;1830266;78;21154;-56
2021/01/29 00:14:05;;;;;;;20.43;10.55;;;;;;;-1.14;100.00;99899.16;1830141;78;21341;-56
2021/01/29 00:16:33;;;;;;;23.02;11.95;;;;;;;-1.19;100.00;99897.41;1830103;77;21016;-56
2021/01/29 00:19:03;;;;;;;19.80;11.03;;;;;;;-1.21;100.00;99898.27;1830157;78;21134;-56
2021/01/29 00:21:30;;;;;;;24.90;12.63;;;;;;;-1.24;100.00;99896.51;1830176;78;21086;-56
2021/01/29 00:23:58;;;;;;;23.07;11.40;;;;;;;-1.24;100.00;99900.91;1829847;78;21141;-56
2021/01/29 00:26:25;;;;;;;24.70;11.47;;;;;;;-1.25;100.00;99897.38;1824248;77;21329;-56
2021/01/29 00:28:53;;;;;;;22.57;12.63;;;;;;;-1.23;100.00;99899.58;1824193;77;21046;-56
2021/01/29 00:31:20;;;;;;;21.30;12.57;;;;;;;-1.18;100.00;99898.27;1824279;78;21050;-56
2021/01/29 00:33:48;;;;;;;25.13;12.93;;;;;;;-1.14;100.00;99894.75;1824283;78;21059;-56
2021/01/29 00:36:16;;;;;;;28.63;13.20;;;;;;;-1.12;100.00;99890.81;1824237;78;21102;-55
2021/01/29 00:38:44;;;;;;;22.97;13.27;;;;;;;-1.09;100.00;99883.81;1837182;78;21412;-56
2021/01/29 00:41:12;;;;;;;22.93;12.77;;;;;;;-1.08;100.00;99884.67;1840264;78;21056;-55
2021/01/29 00:43:40;;;;;;;26.57;13.23;;;;;;;-1.08;100.00;99882.03;1840319;78;21040;-55
2021/01/29 00:46:07;;;;;;;22.90;13.57;;;;;;;-1.07;100.00;99886.42;1840299;78;21112;-56
2021/01/29 00:48:35;;;;;;;29.37;12.82;;;;;;;-1.10;100.00;99875.48;1840337;78;21120;-55
2021/01/29 00:51:04;;;;;;;22.83;13.17;;;;;;;-1.11;100.00;99870.20;1840273;78;21344;-55
2021/01/29 00:53:32;;;;;;;25.17;13.63;;;;;;;-1.16;100.00;99872.41;1840298;78;21053;-54
2021/01/29 00:56:01;;;;;;;25.47;12.47;;;;;;;-1.19;100.00;99869.78;1840296;78;20941;-55
2021/01/29 00:58:30;;;;;;;25.43;13.30;;;;;;;-1.20;100.00;99864.52;1840282;78;20930;-55
2021/01/29 01:01:08;;;;;;;22.23;12.93;;;;;;;-1.23;100.00;99865.38;1837419;78;21122;-55
2021/01/29 01:03:37;;;;;;;21.97;12.40;;;;;;;-1.26;100.00;99862.76;1840288;78;22100;-54
2021/01/29 01:06:05;;;;;;;23.67;11.67;;;;;;;-1.28;100.00;99868.46;1840327;78;21039;-54
2021/01/29 01:08:43;;;;;;;22.03;11.03;;;;;;;-1.29;100.00;99875.91;1835702;78;21112;-55
2021/01/29 01:11:13;;;;;;;19.57;11.10;;;;;;;-1.31;100.00;99884.25;1838801;78;21104;-54
2021/01/29 01:13:42;;;;;;;23.03;12.10;;;;;;;-1.34;100.00;99877.22;1838724;78;21060;-56
2021/01/29 01:16:29;;;;;;;18.65;11.10;;;;;;;-1.34;100.00;99882.48;1840259;78;21658;-54
2021/01/29 01:18:58;;;;;;;17.80;10.95;;;;;;;-1.37;100.00;99884.25;1840196;78;20993;-56
2021/01/29 01:21:36;;;;;;;21.33;11.07;;;;;;;-1.40;100.00;99873.74;1838555;78;21162;-54
2021/01/29 01:24:06;;;;;;;19.62;10.40;;;;;;;-1.46;100.00;99870.21;1836957;78;21207;-54
2021/01/29 01:26:34;;;;;;;24.30;11.25;;;;;;;-1.48;100.00;99870.66;1839972;77;21136;-55
2021/01/29 01:29:20;;;;;;;18.47;10.70;;;;;;;-1.51;100.00;99872.42;1840333;78;21258;-55
2021/01/29 01:31:47;;;;;;;18.97;10.80;;;;;;;-1.59;100.00;99868.02;1840296;78;21057;-56
2021/01/29 01:34:37;;;;;;;22.40;12.23;;;;;;;-1.61;100.00;99865.83;1823011;78;21148;-54
2021/01/29 01:37:14;;;;;;;23.00;11.70;;;;;;;-1.58;100.00;99859.71;1844901;76;22140;-55
2021/01/29 01:40:01;;;;;;;22.93;11.67;;;;;;;-1.65;100.00;99857.97;1814754;79;21038;-55
2021/01/29 01:42:30;;;;;;;20.67;11.80;;;;;;;-1.67;100.00;99855.74;1814862;79;21415;-55
2021/01/29 01:44:58;;;;;;;21.47;11.90;;;;;;;-1.70;100.00;99854.43;1814707;79;20998;-55
2021/01/29 01:47:35;;;;;;;27.03;12.60;;;;;;;-1.71;100.00;99853.57;1813803;79;21009;-55
2021/01/29 01:50:28;;;;;;;24.77;13.43;;;;;;;-1.71;100.00;99852.68;1788181;79;21002;-55
2021/01/29 01:52:57;;;;;;;22.73;12.60;;;;;;;-1.74;100.00;99853.12;1814903;78;21033;-55
2021/01/29 01:55:33;;;;;;;27.37;13.23;;;;;;;-1.75;100.00;99857.08;1814490;79;21355;-55
2021/01/29 01:58:02;;;;;;;26.77;13.63;;;;;;;-1.77;100.00;99859.69;1812811;79;21347;-54
2021/01/29 02:00:32;;;;;;;26.77;14.77;;;;;;;-1.80;100.00;99851.81;1813922;79;20943;-55
2021/01/29 02:03:15;;;;;;;32.37;15.80;;;;;;;-1.85;100.00;99846.99;1812927;79;21070;-55
2021/01/29 02:06:02;;;;;;;30.50;15.57;;;;;;;-1.89;100.00;99839.95;1814892;79;21030;-55
2021/01/29 02:08:47;;;;;;;34.47;17.93;;;;;;;-1.91;100.00;99837.77;1698904;82;21283;-55
2021/01/29 02:11:20;;;;;;;32.90;17.03;;;;;;;-1.92;100.00;99830.33;1746113;80;21175;-55
2021/01/29 02:14:06;;;;;;;34.63;17.07;;;;;;;-1.95;100.00;99838.64;1779244;80;21627;-55
2021/01/29 02:17:04;;;;;;;;;;;;;;;-2.00;100.00;99837.77;1778918;80;21089;-54
2021/01/29 02:20:15;;;;;;;32.87;17.30;;;;;;;-2.05;100.00;99837.33;1748562;81;20224;-55
2021/01/29 02:23:32;;;;;;;36.20;16.73;;;;;;;-2.08;100.00;99832.49;1758878;81;21571;-55
2021/01/29 02:26:46;;;;;;;34.40;18.00;;;;;;;-2.10;100.00;99816.74;1770840;81;21117;-55
2021/01/29 02:29:35;;;;;;;35.20;17.33;;;;;;;-2.12;100.00;99824.17;1770919;81;20975;-54
2021/01/29 02:32:47;;;;;;;36.80;18.67;;;;;;;-2.15;100.00;99818.46;1770976;81;21102;-54
2021/01/29 02:35:44;;;;;;;38.00;19.03;;;;;;;-2.15;100.00;99825.03;1710603;83;21149;-55
2021/01/29 02:39:12;;;;;;;36.20;18.50;;;;;;;-2.12;100.00;99821.09;1758422;80;21383;-55
2021/01/29 02:42:15;;;;;;;39.23;19.53;;;;;;;-2.10;100.00;99814.54;1759470;81;21058;-56
2021/01/29 02:45:17;;;;;;;39.37;19.83;;;;;;;-2.11;100.00;99818.90;1757377;81;21118;-54
2021/01/29 02:48:18;;;;;;;41.37;20.50;;;;;;;-2.12;100.00;99814.52;1759434;81;21058;-55
2021/01/29 02:51:05;;;;;;;40.93;20.43;;;;;;;-2.14;100.00;99811.02;1692172;84;21205;-54
2021/01/29 02:54:08;;;;;;;45.90;21.87;;;;;;;-2.17;100.00;99812.33;1759242;81;21684;-54
2021/01/29 02:56:54;;;;;;;44.60;21.67;;;;;;;-2.21;100.00;99813.20;1696340;81;21149;-54
2021/01/29 02:59:59;;;;;;;44.90;22.17;;;;;;;-2.23;100.00;99812.33;1692679;81;21073;-54
2021/01/29 03:02:58;;;;;;;46.17;23.13;;;;;;;-2.24;100.00;99810.58;1758537;81;20940;-54
2021/01/29 03:05:43;;;;;;;51.53;25.53;;;;;;;-2.27;100.00;99815.83;1665622;85;21221;-55
2021/01/29 03:08:31;;;;;;;47.77;23.17;;;;;;;-2.31;100.00;99822.39;1729224;81;22804;-55
2021/01/29 03:11:38;;;;;;;;;;;;;;;-2.32;100.00;99823.27;1761768;81;21161;-54
2021/01/29 03:14:51;;;;;;;50.23;24.20;;;;;;;-2.38;100.00;99826.30;1759383;81;20149;-53
2021/01/29 03:17:50;;;;;;;47.10;22.63;;;;;;;-2.43;100.00;99822.34;1759265;81;21173;-54
2021/01/29 03:20:45;;;;;;;49.37;23.93;;;;;;;-2.52;100.00;99821.87;1759291;81;21057;-53
2021/01/29 03:23:44;;;;;;;37.35;18.98;;;;;;;-2.56;100.00;99823.16;1759402;81;21719;-54
2021/01/29 03:26:38;;;;;;;48.57;23.30;;;;;;;-2.57;100.00;99817.46;1759195;81;20995;-54
2021/01/29 03:29:27;;;;;;;48.97;22.53;;;;;;;-2.58;100.00;99808.73;1759225;81;21166;-54
2021/01/29 03:32:14;;;;;;;47.00;23.87;;;;;;;-2.57;100.00;99812.21;1759239;81;21133;-54
2021/01/29 03:35:16;;;;;;;47.53;23.87;;;;;;;-2.59;100.00;99810.46;1759218;81;21114;-53
2021/01/29 03:38:19;;;;;;;45.80;22.80;;;;;;;-2.60;100.00;99813.95;1775872;80;22697;-53
2021/01/29 03:41:28;;;;;;;48.60;23.20;;;;;;;-2.61;100.00;99813.97;1790423;80;20936;-54
2021/01/29 03:44:41;;;;;;;48.03;24.63;;;;;;;-2.65;100.00;99818.32;1790479;80;21055;-53
2021/01/29 03:47:35;;;;;;;49.97;22.87;;;;;;;-2.71;100.00;99823.55;1790380;80;21188;-53
2021/01/29 03:51:01;;;;;;;45.63;23.27;;;;;;;-2.78;100.00;99817.81;1790667;80;21054;-53
2021/01/29 03:54:03;;;;;;;47.83;22.73;;;;;;;-2.84;100.00;99820.42;1790466;80;21201;-54
2021/01/29 03:56:54;;;;;;;46.20;22.90;;;;;;;-2.92;100.00;99816.02;1757992;81;21224;-53
2021/01/29 03:59:53;;;;;;;48.00;24.00;;;;;;;-2.95;100.00;99813.39;1762098;81;21167;-53
2021/01/29 04:02:54;;;;;;;49.07;23.37;;;;;;;-2.98;100.00;99813.80;1759240;81;21080;-54
2021/01/29 04:06:09;;;;;;;48.90;22.13;;;;;;;-2.99;100.00;99815.52;1873136;76;22367;-54
2021/01/29 04:09:00;;;;;;;44.40;21.60;;;;;;;-3.07;100.00;99816.82;1841086;78;20914;-54
2021/01/29 04:11:50;;;;;;;50.20;23.10;;;;;;;-3.09;100.00;99821.19;1841116;78;21347;-54
2021/01/29 04:14:40;;;;;;;45.17;23.00;;;;;;;-3.11;100.00;99829.45;1786789;78;21061;-53
2021/01/29 04:17:25;;;;;;;45.93;22.40;;;;;;;-3.13;100.00;99835.56;1841049;78;20885;-55
2021/01/29 04:19:58;;;;;;;46.47;23.03;;;;;;;-3.15;100.00;99837.31;1841126;78;20883;-53
2021/01/29 04:22:30;;;;;;;50.37;23.53;;;;;;;-3.17;100.00;99835.55;1841099;78;20925;-53
2021/01/29 04:25:12;;;;;;;48.33;22.60;;;;;;;-3.20;100.00;99842.09;1840667;78;22312;-54
2021/01/29 04:27:40;;;;;;;49.97;24.43;;;;;;;-3.22;100.00;99829.38;1840984;78;20979;-54
2021/01/29 04:30:23;;;;;;;48.20;23.10;;;;;;;-3.21;100.00;99828.95;1841065;77;20918;-54
2021/01/29 04:32:56;;;;;;;48.23;21.80;;;;;;;-3.22;100.00;99829.38;1841171;78;20973;-54
2021/01/29 04:35:24;;;;;;;54.23;22.77;;;;;;;-3.23;100.00;99819.76;1841119;78;21044;-54
2021/01/29 04:38:14;;;;;;;44.83;20.93;;;;;;;-3.23;100.00;99826.77;1835249;77;21188;-53
2021/01/29 04:41:21;;;;;;;43.00;22.00;;;;;;;-3.23;100.00;99824.14;1828134;77;21137;-53
2021/01/29 04:44:00;;;;;;;45.03;21.47;;;;;;;-3.23;100.00;99821.07;1828124;78;21016;-54
2021/01/29 04:46:39;;;;;;;46.53;22.37;;;;;;;-3.24;100.00;99823.25;1828119;78;20976;-53
2021/01/29 04:49:48;;;;;;;40.03;21.00;;;;;;;-3.24;100.00;99823.70;1809523;77;21063;-54
2021/01/29 04:52:34;;;;;;;40.87;20.80;;;;;;;-3.24;100.00;99815.39;1828186;77;21356;-52
2021/01/29 04:55:16;;;;;;;48.23;21.75;;;;;;;-3.20;100.00;99811.94;1828152;78;28050;-53
2021/01/29 04:58:06;;;;;;;44.43;21.40;;;;;;;-3.14;100.00;99811.53;1827918;78;21094;-53
2021/01/29 05:01:10;;;;;;;44.67;21.25;;;;;;;-3.10;100.00;99801.49;1805170;78;21083;-53
2021/01/29 05:04:01;;;;;;;39.10;19.60;;;;;;;-3.09;100.00;99800.63;1824908;78;21137;-53
2021/01/29 05:07:33;;;;;;;45.43;20.50;;;;;;;-3.08;100.00;99803.27;1828166;78;21384;-53
2021/01/29 05:10:43;;;;;;;41.60;20.83;;;;;;;-3.07;100.00;99799.77;1828046;78;21007;-53
2021/01/29 05:13:35;;;;;;;37.80;19.73;;;;;;;-3.09;100.00;99801.94;1828046;78;20932;-55
2021/01/29 05:16:26;;;;;;;43.50;21.17;;;;;;;-3.09;100.00;99806.77;1827789;78;21082;-55
2021/01/29 05:19:31;;;;;;;43.87;20.77;;;;;;;-3.09;100.00;99804.14;1827559;77;20900;-53
2021/01/29 05:22:10;;;;;;;39.35;17.37;;;;;;;-3.10;100.00;99804.98;1827510;78;21330;-54
2021/01/29 05:25:06;;;;;;;41.73;20.33;;;;;;;-3.12;100.00;99809.34;1827498;78;20925;-53
2021/01/29 05:28:05;;;;;;;44.47;21.27;;;;;;;-3.13;100.00;99808.03;1827414;78;20940;-53
2021/01/29 05:31:12;;;;;;;42.57;21.77;;;;;;;-3.14;100.00;99812.84;1827479;77;21138;-54
2021/01/29 05:34:21;;;;;;;44.03;21.27;;;;;;;-3.17;100.00;99815.89;1827433;78;21138;-53
2021/01/29 05:37:21;;;;;;;46.27;21.53;;;;;;;-3.19;100.00;99823.29;1827474;78;21147;-54
2021/01/29 05:40:06;;;;;;;43.23;20.43;;;;;;;-3.19;100.00;99817.63;1840289;78;21127;-54
2021/01/29 05:43:11;;;;;;;41.98;20.55;;;;;;;-3.17;100.00;99830.73;1840560;78;20926;-54
2021/01/29 05:45:54;;;;;;;45.10;21.67;;;;;;;-3.14;100.00;99832.05;1840010;78;20954;-55
2021/01/29 05:48:44;;;;;;;43.90;21.63;;;;;;;-3.13;100.00;99822.00;1840357;78;20994;-55
2021/01/29 05:51:52;;;;;;;40.83;21.30;;;;;;;-3.13;100.00;99825.08;1840350;78;21130;-54
2021/01/29 05:54:53;;;;;;;44.17;22.77;;;;;;;-3.14;100.00;99837.30;1840244;78;21147;-54
2021/01/29 05:57:57;;;;;;;47.07;22.53;;;;;;;-3.15;100.00;99829.44;1840351;78;21028;-56
2021/01/29 06:00:55;;;;;;;42.47;21.37;;;;;;;-3.20;100.00;99821.12;1840405;78;21054;-55
2021/01/29 06:03:54;;;;;;;44.97;21.73;;;;;;;-3.17;100.00;99829.00;1840307;78;21722;-56
2021/01/29 06:06:43;;;;;;;50.33;22.17;;;;;;;-3.18;100.00;99827.66;1832243;77;21359;-56
2021/01/29 06:09:32;;;;;;;41.67;21.23;;;;;;;-3.14;100.00;99828.57;1831955;77;21167;-55
2021/01/29 06:12:21;;;;;;;39.90;20.40;;;;;;;-3.11;100.00;99823.34;1832091;78;21151;-56
2021/01/29 06:15:05;;;;;;;45.50;21.23;;;;;;;-3.08;100.00;99819.42;1831981;77;21166;-56
2021/01/29 06:18:21;;;;;;;47.60;22.10;;;;;;;-3.04;100.00;99831.26;1831873;77;22215;-56
2021/01/29 06:21:20;;;;;;;47.83;22.27;;;;;;;-2.99;100.00;99832.57;1832193;78;21311;-56
2021/01/29 06:24:21;;;;;;;41.03;20.13;;;;;;;-2.94;100.00;99833.92;1832102;78;21079;-55
2021/01/29 06:27:22;;;;;;;43.23;21.70;;;;;;;-2.89;100.00;99830.45;1832088;78;21012;-56
2021/01/29 06:30:20;;;;;;;39.90;20.30;;;;;;;-2.85;100.00;99828.74;1832113;78;20993;-56
2021/01/29 06:33:00;;;;;;;47.10;21.40;;;;;;;-2.79;100.00;99827.87;1832237;78;21005;-57
2021/01/29 06:36:02;;;;;;;42.70;21.17;;;;;;;-2.75;100.00;99825.27;1832082;78;21310;-57
2021/01/29 06:38:48;;;;;;;46.57;22.77;;;;;;;-2.74;100.00;99821.78;1827816;78;20993;-57
2021/01/29 06:41:49;;;;;;;40.97;20.37;;;;;;;-2.70;100.00;99820.48;1831779;77;21025;-57
2021/01/29 06:44:35;;;;;;;48.37;21.43;;;;;;;-2.68;100.00;99823.56;1831998;78;21067;-56
2021/01/29 06:47:28;;;;;;;44.13;20.77;;;;;;;-2.63;100.00;99825.77;1832124;77;21087;-57
2021/01/29 06:50:07;;;;;;;41.13;20.83;;;;;;;-2.59;100.00;99810.46;1825352;77;21515;-57
2021/01/29 06:53:09;;;;;;;48.33;22.20;;;;;;;-2.55;100.00;99822.28;1832015;77;20917;-57
2021/01/29 06:56:20;;;;;;;42.07;21.30;;;;;;;-2.48;100.00;99813.58;1817516;78;21056;-56
2021/01/29 06:59:14;;;;;;;46.37;21.80;;;;;;;-2.40;100.00;99817.09;1799425;79;20910;-57
2021/01/29 07:02:07;;;;;;;40.60;19.57;;;;;;;-2.34;100.00;99809.22;1799355;79;21123;-57
2021/01/29 07:05:15;;;;;;;40.27;19.67;;;;;;;-2.27;100.00;99806.18;1800078;79;21672;-57
2021/01/29 07:08:13;;;;;;;40.43;20.07;;;;;;;-2.18;100.00;99807.95;1747518;82;21006;-57
2021/01/29 07:11:11;;;;;;;39.47;19.97;;;;;;;-2.08;100.00;99808.85;1755285;81;21101;-57
2021/01/29 07:13:47;;;;;;;37.70;18.40;;;;;;;-1.94;100.00;99816.33;1755317;81;21139;-57
2021/01/29 07:16:42;;;;;;;36.67;18.67;;;;;;;-1.82;100.00;99811.52;1747472;81;21108;-58
2021/01/29 07:20:02;;;;;;;39.75;19.65;;;;;;;-1.73;100.00;99812.82;1771565;80;22297;-58
2021/01/29 07:23:10;;;;;;;40.00;18.83;;;;;;;-1.64;100.00;99800.58;1726836;81;21507;-58
2021/01/29 07:25:57;;;;;;;37.07;18.87;;;;;;;-1.57;100.00;99803.63;1747256;82;21062;-57
2021/01/29 07:28:48;;;;;;;37.90;19.40;;;;;;;-1.53;100.00;99794.86;1747273;82;21469;-58
2021/01/29 07:31:56;;;;;;;34.93;18.03;;;;;;;-1.45;100.00;99793.08;1747033;82;21163;-57
2021/01/29 07:35:03;;;;;;;34.10;17.80;;;;;;;-1.35;100.00;99794.41;1747483;82;21382;-57
2021/01/29 07:37:48;;;;;;;32.60;18.13;;;;;;;-1.23;100.00;99800.94;1755203;80;21016;-56
2021/01/29 07:40:43;;;;;;;35.47;17.10;;;;;;;-1.09;100.00;99802.67;1756767;81;20932;-57
2021/01/29 07:43:40;;;;;;;29.37;14.95;;;;;;;-0.97;100.00;99792.13;1756800;81;21145;-56
2021/01/29 07:46:22;;;;;;;33.30;17.60;;;;;;;-0.83;100.00;99792.08;1776787;80;21043;-58
2021/01/29 07:49:19;;;;;;;33.43;17.73;;;;;;;-0.72;100.00;99792.90;1776832;80;22719;-57
2021/01/29 07:52:05;;;;;;;29.18;16.62;;;;;;;-0.67;100.00;99790.25;1776756;80;20917;-57
2021/01/29 07:55:00;;;;;;;30.85;16.75;;;;;;;-0.64;100.00;99786.28;1776876;80;21000;-57
2021/01/29 07:58:09;;;;;;;31.70;17.20;;;;;;;-0.63;100.00;99791.12;1776982;80;21064;-57
2021/01/29 08:01:04;;;;;;;31.85;16.17;;;;;;;-0.63;100.00;99789.35;1776807;80;21037;-56
2021/01/29 08:03:53;;;;;;;29.70;15.28;;;;;;;-0.60;100.00;99791.97;1756870;81;21553;-57
2021/01/29 08:06:34;;;;;;;26.63;13.87;;;;;;;-0.55;100.00;99787.11;1776595;80;21138;-56
2021/01/29 08:09:28;;;;;;;23.60;13.58;;;;;;;-0.55;100.00;99788.00;1756803;81;21204;-57
2021/01/29 08:11:58;;;;;;;26.12;14.00;;;;;;;-0.54;100.00;99784.95;1772260;80;20956;-57
2021/01/29 08:14:53;;;;;;;27.55;14.35;;;;;;;-0.53;100.00;99786.23;1776779;80;21451;-57
2021/01/29 08:17:49;;;;;;;29.65;15.25;;;;;;;-0.51;100.00;99794.14;1755061;81;21401;-58
2021/01/29 08:20:58;;;;;;;25.12;13.72;;;;;;;-0.53;100.00;99790.64;1770944;81;20993;-57
2021/01/29 08:23:50;;;;;;;24.60;13.77;;;;;;;-0.46;100.00;99793.67;1889505;76;22635;-57
2021/01/29 08:27:01;;;;;;;27.20;14.03;;;;;;;-0.48;100.00;99792.80;1860741;77;20980;-57
2021/01/29 08:29:47;;;;;;;26.57;14.38;;;;;;;-0.45;100.00;99784.88;1844356;77;21697;-56
2021/01/29 08:33:06;;;;;;;26.90;14.50;;;;;;;-0.40;100.00;99767.75;1746406;81;21055;-57
2021/01/29 08:36:06;;;;;;;25.35;13.58;;;;;;;-0.32;100.00;99772.09;1860504;77;20917;-56
2021/01/29 08:38:45;;;;;;;21.27;12.50;;;;;;;-0.25;100.00;99768.09;1838324;77;20920;-57
2021/01/29 08:41:21;;;;;;;27.95;14.40;;;;;;;-0.20;100.00;99772.45;1830260;78;20901;-57
2021/01/29 08:44:17;;;;;;;22.42;13.43;;;;;;;-0.15;100.00;99782.52;1829766;78;21190;-56
2021/01/29 08:47:09;;;;;;;22.07;13.20;;;;;;;-0.10;100.00;99782.92;1830078;78;21018;-56
2021/01/29 08:50:10;;;;;;;25.70;12.82;;;;;;;-0.02;100.00;99780.66;1830298;78;21638;-57
2021/01/29 08:53:13;;;;;;;27.48;12.85;;;;;;;0.07;100.00;99782.79;1845558;77;21004;-57
2021/01/29 08:56:13;;;;;;;22.95;12.70;;;;;;;0.13;100.00;99777.50;1824252;77;21036;-57
2021/01/29 08:59:03;;;;;;;26.52;13.80;;;;;;;0.15;100.00;99780.99;1860137;77;21450;-56
2021/01/29 09:02:03;;;;;;;24.55;13.43;;;;;;;0.15;100.00;99773.08;1854906;77;21214;-56
2021/01/29 09:04:51;;;;;;;23.30;13.38;;;;;;;0.16;100.00;99757.70;1859599;77;21071;-57
2021/01/29 09:07:30;;;;;;;24.92;14.10;;;;;;;0.22;100.00;99751.05;1859661;77;21459;-56
2021/01/29 09:10:24;;;;;;;24.90;13.00;;;;;;;0.31;100.00;99741.30;1860123;77;21166;-57
2021/01/29 09:12:59;;;;;;;23.35;13.03;;;;;;;0.42;100.00;99738.98;1860487;77;25005;-57
2021/01/29 09:15:56;;;;;;;24.55;13.25;;;;;;;0.55;100.00;99727.01;1821478;78;21685;-57
2021/01/29 09:18:49;;;;;;;23.38;12.43;;;;;;;0.66;100.00;99717.66;1820585;78;20949;-57
2021/01/29 09:21:23;;;;;;;21.33;11.60;;;;;;;0.77;100.00;99711.80;1821646;78;21131;-57
2021/01/29 09:24:14;;;;;;;22.37;12.35;;;;;;;0.85;100.00;99706.02;1757937;78;21441;-57
2021/01/29 09:27:22;;;;;;;21.85;12.33;;;;;;;0.91;100.00;99702.86;1825803;78;21146;-57
2021/01/29 09:30:00;;;;;;;23.00;12.60;;;;;;;0.97;100.00;99694.43;1825738;78;21017;-58
2021/01/29 09:32:45;;;;;;;20.75;11.80;;;;;;;1.03;100.00;99682.92;1822266;78;21551;-58
2021/01/29 09:35:34;;;;;;;20.65;11.50;;;;;;;1.14;100.00;99686.28;1825223;78;20988;-58
2021/01/29 09:38:02;;;;;;;24.20;12.45;;;;;;;1.24;100.00;99680.44;1785809;80;21122;-58
2021/01/29 09:40:35;;;;;;;19.62;10.72;;;;;;;1.30;100.00;99679.48;1810160;79;21406;-58
2021/01/29 09:43:14;;;;;;;24.35;10.60;;;;;;;1.29;100.00;99668.03;1792921;80;21513;-58
2021/01/29 09:45:43;;;;;;;19.60;10.82;;;;;;;1.28;100.00;99672.03;1806951;78;21114;-58
2021/01/29 09:48:13;;;;;;;20.15;10.78;;;;;;;1.26;100.00;99673.82;1791101;80;21132;-58
2021/01/29 09:50:40;;;;;;;20.08;11.12;;;;;;;1.23;100.00;99668.13;1810293;79;21468;-58
2021/01/29 09:53:23;;;;;;;22.27;12.13;;;;;;;1.20;100.00;99669.92;1792731;80;21371;-58
2021/01/29 09:56:01;;;;;;;24.23;11.83;;;;;;;1.19;100.00;99674.78;1825124;78;21010;-57
2021/01/29 09:58:59;;;;;;;21.40;12.03;;;;;;;1.19;100.00;99658.50;1809908;79;21031;-57
2021/01/29 10:01:26;;;;;;;19.95;11.08;;;;;;;1.21;100.00;99663.75;1785929;80;21188;-57
2021/01/29 10:04:34;;;;;;;19.15;10.93;;;;;;;1.22;100.00;99666.37;1825150;78;21110;-57
2021/01/29 10:07:02;;;;;;;23.20;12.13;;;;;;;1.24;100.00;99679.58;1810089;79;21865;-57
2021/01/29 10:09:34;;;;;;;23.25;12.30;;;;;;;1.28;100.00;99677.31;1792647;79;21126;-57
2021/01/29 10:12:19;;;;;;;28.10;13.58;;;;;;;1.33;100.00;99678.58;1825113;78;21071;-57
2021/01/29 10:15:02;;;;;;;24.45;13.55;;;;;;;1.38;100.00;99682.02;1791128;80;21133;-57
2021/01/29 10:17:43;;;;;;;25.40;14.20;;;;;;;1.39;100.00;99687.26;1825204;78;21209;-58
2021/01/29 10:20:15;;;;;;;27.82;13.55;;;;;;;1.39;100.00;99685.94;1791053;80;21378;-56
2021/01/29 10:23:15;;;;;;;26.85;12.70;;;;;;;1.40;100.00;99680.22;1783706;79;21472;-58
2021/01/29 10:26:09;;;;;;;27.42;13.90;;;;;;;1.42;100.00;99679.75;1795725;79;20924;-58
2021/01/29 10:29:08;;;;;;;24.63;13.83;;;;;;;1.42;100.00;99683.25;1810600;79;21110;-57
2021/01/29 10:31:47;;;;;;;25.00;14.20;;;;;;;1.40;100.00;99694.28;1790016;79;21557;-57
2021/01/29 10:34:26;;;;;;;25.23;12.88;;;;;;;1.40;100.00;99702.67;1787323;79;21379;-57
2021/01/29 10:37:20;;;;;;;21.30;12.23;;;;;;;1.39;100.00;99685.94;1793502;79;21173;-57
2021/01/29 10:40:21;;;;;;;23.70;13.10;;;;;;;1.38;100.00;99682.02;1806291;78;21114;-57
2021/01/29 10:43:16;;;;;;;27.67;14.87;;;;;;;1.36;100.00;99671.92;1770674;80;21146;-57
2021/01/29 10:46:15;;;;;;;27.05;14.83;;;;;;;1.36;100.00;99667.96;1776151;79;21173;-57
2021/01/29 10:48:55;;;;;;;25.62;13.28;;;;;;;1.36;100.00;99664.00;1808937;78;21212;-58
2021/01/29 10:51:55;;;;;;;25.55;13.10;;;;;;;1.34;100.00;99649.48;1739743;79;21141;-57
2021/01/29 10:54:23;;;;;;;26.02;13.58;;;;;;;1.33;100.00;99645.56;1816250;78;21150;-56
2021/01/29 10:57:03;;;;;;;26.70;14.93;;;;;;;1.34;100.00;99638.92;1793161;79;21482;-57
2021/01/29 10:59:47;;;;;;;22.52;11.88;;;;;;;1.37;100.00;99630.09;1752833;80;21153;-56
2021/01/29 11:02:33;;;;;;;22.60;12.45;;;;;;;1.37;100.00;99630.95;1790176;78;22300;-57
2021/01/29 11:05:13;;;;;;;25.85;13.08;;;;;;;1.38;100.00;99626.55;1795436;80;20936;-56
2021/01/29 11:07:43;;;;;;;21.87;11.85;;;;;;;1.38;100.00;99626.55;1821586;78;20967;-56
2021/01/29 11:10:33;;;;;;;21.77;12.15;;;;;;;1.41;100.00;99620.75;1821648;78;21071;-57
2021/01/29 11:13:28;;;;;;;25.17;13.95;;;;;;;1.42;100.00;99609.29;1795672;80;21498;-56
2021/01/29 11:16:04;;;;;;;20.65;11.50;;;;;;;1.46;100.00;99602.66;1795096;80;21511;-57
2021/01/29 11:18:35;;;;;;;21.02;11.15;;;;;;;1.45;100.00;99601.78;1821806;78;25011;-56
2021/01/29 11:21:38;;;;;;;20.45;10.93;;;;;;;1.42;100.00;99602.69;1821557;78;21078;-56
2021/01/29 11:24:15;;;;;;;21.20;11.08;;;;;;;1.40;100.00;99596.56;1816581;78;21189;-56
2021/01/29 11:27:20;;;;;;;17.87;10.45;;;;;;;1.39;100.00;99597.45;1815593;79;21023;-56
2021/01/29 11:30:26;;;;;;;23.22;12.05;;;;;;;1.40;100.00;99591.74;1754535;80;21369;-56
2021/01/29 11:32:57;;;;;;;;;;;;;;;1.41;100.00;99589.06;1804543;79;21074;-56
2021/01/29 11:36:03;;;;;;;19.02;10.90;;;;;;;1.42;100.00;99586.84;1801852;79;20221;-56
2021/01/29 11:38:56;;;;;;;18.90;11.18;;;;;;;1.41;100.00;99582.92;1788466;80;21057;-55
2021/01/29 11:41:38;;;;;;;21.82;11.50;;;;;;;1.40;100.00;99588.64;1792708;80;21062;-56
2021/01/29 11:44:20;;;;;;;18.12;10.60;;;;;;;1.41;100.00;99583.78;1811145;79;21709;-56
2021/01/29 11:47:12;;;;;;;20.37;10.55;;;;;;;1.45;100.00;99578.47;1811577;79;21128;-56
2021/01/29 11:49:58;;;;;;;16.07;9.93;;;;;;;1.52;100.00;99578.78;1844770;76;20896;-56
2021/01/29 11:52:37;;;;;;;19.35;9.98;;;;;;;1.45;100.00;99573.19;1814768;79;20922;-55
2021/01/29 11:55:27;;;;;;;24.32;10.53;;;;;;;1.42;100.00;99564.39;1814666;79;21450;-57
2021/01/29 11:58:28;;;;;;;19.92;10.13;;;;;;;1.40;100.00;99557.41;1768851;79;21618;-55
2021/01/29 12:01:07;;;;;;;18.95;9.13;;;;;;;1.36;100.00;99552.61;1736074;81;21132;-56
2021/01/29 12:03:48;;;;;;;14.85;8.70;;;;;;;1.33;100.00;99546.53;1786424;79;21065;-56
2021/01/29 12:06:30;;;;;;;17.75;9.23;;;;;;;1.29;100.00;99547.88;1793556;79;20915;-56
2021/01/29 12:09:18;;;;;;;18.32;8.58;;;;;;;1.26;100.00;99552.36;1795461;79;21304;-56
2021/01/29 12:12:01;;;;;;;14.40;8.65;;;;;;;1.25;100.00;99546.66;1782417;80;20938;-56
2021/01/29 12:14:56;;;;;;;15.32;8.25;;;;;;;1.21;100.00;99547.57;1748103;82;21018;-56
2021/01/29 12:17:27;;;;;;;14.93;8.27;;;;;;;1.20;100.00;99544.51;1740497;82;21077;-56
2021/01/29 12:20:09;;;;;;;16.30;8.88;;;;;;;1.20;100.00;99550.67;1740182;82;21058;-56
2021/01/29 12:22:45;;;;;;;15.50;8.48;;;;;;;1.21;100.00;99551.09;1738768;82;21394;-56
2021/01/29 12:25:52;;;;;;;17.55;8.63;;;;;;;1.22;100.00;99556.80;1739968;82;21596;-56
2021/01/29 12:28:28;;;;;;;20.95;9.03;;;;;;;1.20;100.00;99552.00;1740156;82;21023;-56
2021/01/29 12:31:27;;;;;;;15.28;8.43;;;;;;;1.20;100.00;99560.35;1748340;81;21070;-57
2021/01/29 12:34:30;;;;;;;15.50;8.50;;;;;;;1.18;100.00;99564.36;1764705;81;21054;-55
2021/01/29 12:37:23;;;;;;;16.57;7.30;;;;;;;1.16;100.00;99562.62;1751206;81;21247;-55
2021/01/29 12:40:00;;;;;;;11.80;7.42;;;;;;;1.16;100.00;99552.06;1742463;81;21181;-56
2021/01/29 12:42:48;;;;;;;14.10;7.47;;;;;;;1.16;100.00;99550.73;1750933;81;21153;-57
2021/01/29 12:45:42;;;;;;;16.52;8.08;;;;;;;1.13;100.00;99559.13;1753381;81;21173;-55
2021/01/29 12:48:37;;;;;;;14.80;7.85;;;;;;;1.14;100.00;99560.02;1774608;79;21192;-56
2021/01/29 12:51:18;;;;;;;14.68;7.92;;;;;;;1.15;100.00;99559.13;1769445;80;21295;-56